createdAt,value
2022-08-07T00:15:22.922Z,1022.79
2022-08-07T00:45:22.933Z,1022.69
2022-08-07T01:15:22.937Z,1022.59
2022-08-07T01:45:23.189Z,1022.71
2022-08-07T02:15:22.967Z,1022.58
2022-08-07T02:45:58.127Z,1022.29
2022-08-07T03:15:30.406Z,1022.25
2022-08-07T03:45:30.842Z,1022.23
2022-08-07T04:15:23.848Z,1022.25
2022-08-07T04:45:22.955Z,1022.45
2022-08-07T05:15:24.014Z,1022.53
2022-08-07T05:45:28.056Z,1022.54
2022-08-07T06:15:22.966Z,1022.54
2022-08-07T06:45:22.971Z,1022.56
2022-08-07T07:15:23.961Z,1022.63
2022-08-07T07:46:35.398Z,1022.46
2022-08-07T08:15:23.278Z,1022.27
2022-08-07T08:45:26.881Z,1022.14
2022-08-07T09:16:25.455Z,1022.08
2022-08-07T09:47:25.583Z,1021.75
2022-08-07T10:15:23.049Z,1021.55
2022-08-07T10:45:43.994Z,1021.12
2022-08-07T11:15:26.265Z,1020.78
2022-08-07T11:45:23.711Z,1020.47
2022-08-07T12:15:57.963Z,1020.2
2022-08-07T12:45:23.035Z,1020.03
2022-08-07T13:15:23.480Z,1019.71
2022-08-07T13:46:11.978Z,1019.49
2022-08-07T14:15:23.855Z,1019.36
2022-08-07T14:45:23.060Z,1018.96
2022-08-07T15:15:23.050Z,1018.91
2022-08-07T15:45:23.062Z,1018.75
2022-08-07T16:15:55.191Z,1018.46
2022-08-07T16:46:47.620Z,1018.35
2022-08-07T17:15:28.832Z,1018.33
2022-08-07T17:45:23.565Z,1018.48
2022-08-07T18:15:23.090Z,1018.57
2022-08-07T18:45:43.180Z,1018.71
2022-08-07T19:16:05.270Z,1019
2022-08-07T19:46:06.053Z,1019.45
2022-08-07T20:15:23.134Z,1019.59
2022-08-07T20:45:33.022Z,1019.6
2022-08-07T21:15:23.126Z,1019.63
2022-08-07T21:46:09.386Z,1019.66
2022-08-07T22:16:44.187Z,1019.79
2022-08-07T22:46:04.557Z,1019.96
2022-08-07T23:16:06.913Z,1020.18
2022-08-07T23:45:33.167Z,1020.17
